createdAt,value
2022-10-31T00:01:39.041Z,50.20
2022-10-31T00:04:07.522Z,48.90
2022-10-31T00:06:35.727Z,48.10
2022-10-31T00:09:06.105Z,47.70
2022-10-31T00:11:34.641Z,52.00
2022-10-31T00:14:03.336Z,55.20
2022-10-31T00:16:31.369Z,57.00
2022-10-31T00:19:02.513Z,58.50
2022-10-31T00:21:32.245Z,59.70
2022-10-31T00:24:01.446Z,60.50
2022-10-31T00:26:33.294Z,61.00
2022-10-31T00:29:01.947Z,61.20
2022-10-31T00:31:30.201Z,56.80
2022-10-31T00:33:59.669Z,53.60
2022-10-31T00:36:28.660Z,52.30
2022-10-31T00:38:56.964Z,51.00
2022-10-31T00:41:25.824Z,49.80
2022-10-31T00:43:53.933Z,48.90
2022-10-31T00:46:22.166Z,51.60
2022-10-31T00:48:52.190Z,55.20
2022-10-31T00:51:20.499Z,57.30
2022-10-31T00:53:48.655Z,59.00
2022-10-31T00:56:16.829Z,60.10
2022-10-31T00:58:45.143Z,61.10
2022-10-31T01:01:13.448Z,61.70
2022-10-31T01:03:41.742Z,61.90
2022-10-31T01:06:14.727Z,60.00
2022-10-31T01:08:43.068Z,55.10
2022-10-31T01:11:17.275Z,53.40
2022-10-31T01:13:46.549Z,52.10
2022-10-31T01:16:19.662Z,50.60
2022-10-31T01:18:48.495Z,49.30
2022-10-31T01:21:18.235Z,50.50
2022-10-31T01:23:46.621Z,54.90
2022-10-31T01:26:20.645Z,57.60
2022-10-31T01:28:51.183Z,59.10
2022-10-31T01:31:21.274Z,60.40
2022-10-31T01:33:50.352Z,61.40
2022-10-31T01:36:20.783Z,61.90
2022-10-31T01:38:53.449Z,62.30
2022-10-31T01:41:25.154Z,61.20
2022-10-31T01:43:59.598Z,55.90
2022-10-31T01:46:47.823Z,53.90
2022-10-31T01:49:39.617Z,52.30
2022-10-31T01:52:26.195Z,51.40
2022-10-31T01:55:04.638Z,54.40
2022-10-31T01:57:34.952Z,57.80
2022-10-31T02:00:08.332Z,59.80
2022-10-31T02:02:43.337Z,61.20
2022-10-31T02:05:17.725Z,62.20
2022-10-31T02:07:54.604Z,63.30
2022-10-31T02:10:30.942Z,63.70
2022-10-31T02:13:01.476Z,64.00
2022-10-31T02:15:31.621Z,60.90
2022-10-31T02:18:00.068Z,56.90
2022-10-31T02:20:30.731Z,54.60
2022-10-31T02:23:27.857Z,53.20
2022-10-31T02:26:17.820Z,51.50
2022-10-31T02:29:07.581Z,50.50
2022-10-31T02:32:04.842Z,48.90
2022-10-31T02:34:38.997Z,48.00
2022-10-31T02:37:26.693Z,47.40
2022-10-31T02:40:01.548Z,49.90
2022-10-31T02:42:57.613Z,53.40
2022-10-31T02:45:53.527Z,56.20
2022-10-31T02:48:28.902Z,58.10
2022-10-31T02:51:05.263Z,59.40
2022-10-31T02:53:38.177Z,60.80
2022-10-31T02:56:12.743Z,60.70
2022-10-31T02:58:52.104Z,60.90
2022-10-31T03:01:54.183Z,60.70
2022-10-31T03:04:57.836Z,54.90
2022-10-31T03:07:43.767Z,53.20
2022-10-31T03:10:43.497Z,51.50
2022-10-31T03:13:33.967Z,49.90
2022-10-31T03:16:25.703Z,53.30
2022-10-31T03:19:03.210Z,57.30
2022-10-31T03:21:37.638Z,59.20
2022-10-31T03:24:08.392Z,60.60
2022-10-31T03:26:44.478Z,62.40
2022-10-31T03:29:16.927Z,62.80
2022-10-31T03:31:52.526Z,63.10
2022-10-31T03:34:22.861Z,63.10
2022-10-31T03:36:56.519Z,61.50
2022-10-31T03:39:25.782Z,56.30
2022-10-31T03:42:09.002Z,54.40
2022-10-31T03:44:40.206Z,52.90
2022-10-31T03:47:09.013Z,51.70
2022-10-31T03:49:37.545Z,52.60
2022-10-31T03:52:28.221Z,56.20
2022-10-31T03:55:14.448Z,58.90
2022-10-31T03:58:09.717Z,60.50
2022-10-31T04:00:43.417Z,62.00
2022-10-31T04:03:26.941Z,63.30
2022-10-31T04:06:01.348Z,63.90
2022-10-31T04:08:33.113Z,64.20
2022-10-31T04:11:04.283Z,63.60
2022-10-31T04:13:37.314Z,57.50
2022-10-31T04:16:16.094Z,55.30
2022-10-31T04:18:46.280Z,53.80
2022-10-31T04:21:14.622Z,52.60
2022-10-31T04:23:43.680Z,51.40
2022-10-31T04:26:19.556Z,54.40
2022-10-31T04:28:47.838Z,58.10
2022-10-31T04:31:16.562Z,60.00
2022-10-31T04:33:46.968Z,61.40
2022-10-31T04:36:15.146Z,62.50
2022-10-31T04:38:44.126Z,63.70
2022-10-31T04:41:25.626Z,64.20
2022-10-31T04:44:02.401Z,64.60
2022-10-31T04:46:30.740Z,64.60
2022-10-31T04:49:00.115Z,60.20
2022-10-31T04:51:28.469Z,56.70
2022-10-31T04:53:57.160Z,55.30
2022-10-31T04:56:54.416Z,53.70
2022-10-31T04:59:24.072Z,55.40
2022-10-31T05:01:54.898Z,60.00
2022-10-31T05:04:35.869Z,61.70
2022-10-31T05:07:04.205Z,63.20
2022-10-31T05:09:32.259Z,64.20
2022-10-31T05:12:00.628Z,65.10
2022-10-31T05:14:48.612Z,65.90
2022-10-31T05:17:35.744Z,66.20
2022-10-31T05:20:23.934Z,65.40
2022-10-31T05:23:15.079Z,58.70
2022-10-31T05:25:43.173Z,56.30
2022-10-31T05:28:11.315Z,55.10
2022-10-31T05:30:39.778Z,53.90
2022-10-31T05:33:11.806Z,53.10
2022-10-31T05:35:42.687Z,58.20
2022-10-31T05:38:29.905Z,60.40
2022-10-31T05:41:02.084Z,62.60
2022-10-31T05:43:32.702Z,63.60
2022-10-31T05:46:02.472Z,64.60
2022-10-31T05:48:48.773Z,65.40
2022-10-31T05:51:39.987Z,66.10
2022-10-31T05:54:12.061Z,66.20
2022-10-31T05:56:46.283Z,65.90
2022-10-31T05:59:14.541Z,59.50
2022-10-31T06:01:42.751Z,57.70
2022-10-31T06:04:26.363Z,55.90
2022-10-31T06:09:30.640Z,54.40
2022-10-31T06:11:58.979Z,57.30
2022-10-31T06:14:27.188Z,60.20
2022-10-31T06:16:57.866Z,61.90
2022-10-31T06:19:54.889Z,63.20
2022-10-31T06:22:26.529Z,64.70
2022-10-31T06:24:56.352Z,65.40
2022-10-31T06:27:44.618Z,66.10
2022-10-31T06:30:16.958Z,66.60
2022-10-31T06:32:47.646Z,66.50
2022-10-31T06:35:15.993Z,61.10
2022-10-31T06:37:46.811Z,58.50
2022-10-31T06:40:29.287Z,56.30
2022-10-31T06:43:15.869Z,55.10
2022-10-31T06:45:44.988Z,58.50
2022-10-31T06:48:36.277Z,61.70
2022-10-31T06:51:35.900Z,63.50
2022-10-31T06:54:04.217Z,64.70
2022-10-31T06:56:33.493Z,65.80
2022-10-31T06:59:01.710Z,66.70
2022-10-31T07:01:52.692Z,67.40
2022-10-31T07:04:20.856Z,67.90
2022-10-31T07:06:51.998Z,67.20
2022-10-31T07:09:21.153Z,60.70
2022-10-31T07:11:49.684Z,58.50
2022-10-31T07:14:17.957Z,56.70
2022-10-31T07:16:49.493Z,55.30
2022-10-31T07:19:19.158Z,59.10
2022-10-31T07:21:48.419Z,62.20
2022-10-31T07:24:16.942Z,64.00
2022-10-31T07:26:45.033Z,65.20
2022-10-31T07:29:13.200Z,66.20
2022-10-31T07:31:41.442Z,67.20
2022-10-31T07:34:17.716Z,68.40
2022-10-31T07:37:04.154Z,69.40
2022-10-31T07:39:32.377Z,69.00
2022-10-31T07:42:01.193Z,65.80
2022-10-31T07:44:29.882Z,60.90
2022-10-31T07:47:16.361Z,58.70
2022-10-31T07:50:04.942Z,57.20
2022-10-31T07:53:03.930Z,55.90
2022-10-31T07:57:11.600Z,52.80
2022-10-31T07:59:40.956Z,55.10
2022-10-31T08:02:09.831Z,59.10
2022-10-31T08:05:01.159Z,61.40
2022-10-31T08:07:48.422Z,63.30
2022-10-31T08:10:22.461Z,65.00
2022-10-31T08:13:04.024Z,66.10
2022-10-31T08:15:33.643Z,66.80
2022-10-31T08:18:02.445Z,67.50
2022-10-31T08:20:31.329Z,67.60
2022-10-31T08:23:05.089Z,65.80
2022-10-31T08:25:38.559Z,60.60
2022-10-31T08:28:08.744Z,58.40
2022-10-31T08:30:39.047Z,56.90
2022-10-31T08:33:25.871Z,55.70
2022-10-31T08:36:12.253Z,53.90
2022-10-31T08:39:01.876Z,52.50
2022-10-31T08:41:32.140Z,51.50
2022-10-31T08:44:01.873Z,52.30
2022-10-31T08:46:30.243Z,56.00
2022-10-31T08:48:58.571Z,58.90
2022-10-31T08:51:26.973Z,61.00
2022-10-31T08:53:57.160Z,62.40
2022-10-31T08:56:37.355Z,63.80
2022-10-31T08:59:14.467Z,65.10
2022-10-31T09:02:00.854Z,66.00
2022-10-31T09:04:30.654Z,66.40
2022-10-31T09:07:20.062Z,66.70
2022-10-31T09:09:47.813Z,64.00
2022-10-31T09:12:16.056Z,59.10
2022-10-31T09:15:12.753Z,57.70
2022-10-31T09:18:14.272Z,56.20
2022-10-31T09:21:11.249Z,54.40
2022-10-31T09:23:39.782Z,53.10
2022-10-31T09:26:08.030Z,52.10
2022-10-31T09:28:42.228Z,51.10
2022-10-31T09:31:13.382Z,50.80
2022-10-31T09:33:47.291Z,54.50
2022-10-31T09:36:35.265Z,57.80
2022-10-31T09:39:04.962Z,60.30
2022-10-31T09:42:06.318Z,62.20
2022-10-31T09:44:42.877Z,63.70
2022-10-31T09:47:46.365Z,65.20
2022-10-31T09:50:52.911Z,66.20
2022-10-31T09:54:03.154Z,67.00
2022-10-31T09:56:33.668Z,65.40
2022-10-31T09:59:04.403Z,60.00
2022-10-31T10:02:15.557Z,58.80
2022-10-31T10:04:56.630Z,57.10
2022-10-31T10:07:34.611Z,55.80
2022-10-31T10:10:32.289Z,54.60
2022-10-31T10:13:52.650Z,53.20
2022-10-31T10:16:59.241Z,52.10
2022-10-31T10:19:33.208Z,51.30
2022-10-31T10:22:19.702Z,50.20
2022-10-31T10:25:17.616Z,49.30
2022-10-31T10:28:05.178Z,48.60
2022-10-31T10:30:45.627Z,48.00
2022-10-31T10:33:35.727Z,47.40
2022-10-31T10:36:15.282Z,46.80
2022-10-31T10:39:04.710Z,46.30
2022-10-31T10:41:34.934Z,45.70
2022-10-31T10:44:06.955Z,47.80
2022-10-31T10:46:53.246Z,51.00
2022-10-31T10:49:52.886Z,55.20
2022-10-31T10:52:50.768Z,57.00
2022-10-31T10:55:30.410Z,59.90
2022-10-31T10:58:03.425Z,61.70
2022-10-31T11:00:36.293Z,62.60
2022-10-31T11:03:05.383Z,63.60
2022-10-31T11:05:49.311Z,64.00
2022-10-31T11:08:37.616Z,64.30
2022-10-31T11:11:11.626Z,58.90
2022-10-31T11:13:44.216Z,56.80
2022-10-31T11:16:29.438Z,55.80
2022-10-31T11:19:11.307Z,54.70
2022-10-31T11:21:40.882Z,53.40
2022-10-31T11:24:11.980Z,52.10
2022-10-31T11:26:41.984Z,51.30
2022-10-31T11:29:27.170Z,50.40
2022-10-31T11:31:58.462Z,49.20
2022-10-31T11:34:33.673Z,48.70
2022-10-31T11:37:18.526Z,47.80
2022-10-31T11:39:52.968Z,47.10
2022-10-31T11:42:31.457Z,46.80
2022-10-31T11:44:59.862Z,46.20
2022-10-31T11:47:31.470Z,45.80
2022-10-31T11:50:02.430Z,48.60
2022-10-31T11:52:33.845Z,51.70
2022-10-31T11:55:14.140Z,55.10
2022-10-31T11:57:51.972Z,57.80
2022-10-31T12:00:49.769Z,59.60
2022-10-31T12:03:33.508Z,61.30
2022-10-31T12:06:38.329Z,62.50
2022-10-31T12:09:34.959Z,63.20
2022-10-31T12:12:21.699Z,63.50
2022-10-31T12:15:11.466Z,58.00
2022-10-31T12:18:14.260Z,55.70
2022-10-31T12:21:00.737Z,54.20
2022-10-31T12:23:45.125Z,52.50
2022-10-31T12:26:28.626Z,51.30
2022-10-31T12:29:07.872Z,50.30
2022-10-31T12:31:51.563Z,49.10
2022-10-31T12:34:46.153Z,47.90
2022-10-31T12:37:26.024Z,47.70
2022-10-31T12:40:30.887Z,46.60
2022-10-31T12:43:21.137Z,45.90
2022-10-31T12:45:55.208Z,45.40
2022-10-31T12:48:45.024Z,44.80
2022-10-31T12:51:31.587Z,44.50
2022-10-31T12:54:15.384Z,44.30
2022-10-31T12:56:59.085Z,44.10
2022-10-31T12:59:59.247Z,44.20
2022-10-31T13:02:41.710Z,44.20
2022-10-31T13:05:33.306Z,44.10
2022-10-31T13:08:01.565Z,45.60
2022-10-31T13:10:38.950Z,50.20
2022-10-31T13:13:33.698Z,54.00
2022-10-31T13:16:24.165Z,56.50
2022-10-31T13:19:16.141Z,58.50
2022-10-31T13:22:08.137Z,59.90
2022-10-31T13:25:03.910Z,56.10
2022-10-31T13:27:54.481Z,53.90
2022-10-31T13:30:24.962Z,52.30
2022-10-31T13:32:56.245Z,51.00
2022-10-31T13:35:34.763Z,49.90
2022-10-31T13:38:17.883Z,48.90
2022-10-31T13:41:15.086Z,48.10
2022-10-31T13:44:15.410Z,47.70
2022-10-31T13:46:45.371Z,47.10
2022-10-31T13:49:31.911Z,46.50
2022-10-31T13:52:12.081Z,46.60
2022-10-31T13:54:44.628Z,45.90
2022-10-31T13:57:18.983Z,46.00
2022-10-31T14:00:00.378Z,50.10
2022-10-31T14:02:32.082Z,53.60
2022-10-31T14:05:21.350Z,56.20
2022-10-31T14:07:49.976Z,58.30
2022-10-31T14:10:52.111Z,58.50
2022-10-31T14:13:39.287Z,53.20
2022-10-31T14:16:26.770Z,51.90
2022-10-31T14:19:22.366Z,57.00
2022-10-31T14:21:51.566Z,60.60
2022-10-31T14:24:25.527Z,61.90
2022-10-31T14:26:59.224Z,62.20
2022-10-31T14:29:35.265Z,56.20
2022-10-31T14:32:17.313Z,54.20
2022-10-31T14:34:59.120Z,53.00
2022-10-31T14:37:36.506Z,51.60
2022-10-31T14:40:27.313Z,50.50
2022-10-31T14:43:19.911Z,49.30
2022-10-31T14:45:57.277Z,48.40
2022-10-31T14:49:02.661Z,47.40
2022-10-31T14:51:43.653Z,46.50
2022-10-31T14:54:37.844Z,46.10
2022-10-31T14:57:18.164Z,45.30
2022-10-31T14:59:57.877Z,45.10
2022-10-31T15:02:45.376Z,44.70
2022-10-31T15:05:15.331Z,44.50
2022-10-31T15:07:57.210Z,47.10
2022-10-31T15:10:28.634Z,51.50
2022-10-31T15:12:57.599Z,48.70
2022-10-31T15:15:28.048Z,47.80
2022-10-31T15:18:01.701Z,48.80
2022-10-31T15:20:44.053Z,52.90
2022-10-31T15:23:18.345Z,55.80
2022-10-31T15:25:47.578Z,51.20
2022-10-31T15:28:18.139Z,49.10
2022-10-31T15:30:54.830Z,47.90
2022-10-31T15:33:32.421Z,47.30
2022-10-31T15:36:06.511Z,46.60
2022-10-31T15:38:34.937Z,46.20
2022-10-31T15:41:07.761Z,46.70
2022-10-31T15:43:38.956Z,46.30
2022-10-31T15:46:10.825Z,45.50
2022-10-31T15:48:39.883Z,45.10
2022-10-31T15:51:08.071Z,47.10
2022-10-31T15:53:47.677Z,51.40
2022-10-31T15:56:29.442Z,53.80
2022-10-31T16:03:32.310Z,50.70
2022-10-31T16:06:03.727Z,52.60
2022-10-31T16:10:03.643Z,49.70
2022-10-31T16:12:47.457Z,53.70
2022-10-31T16:15:18.167Z,52.70
2022-10-31T16:17:51.186Z,50.30
2022-10-31T16:20:28.377Z,49.10
2022-10-31T16:22:58.447Z,48.30
2022-10-31T16:25:38.034Z,47.60
2022-10-31T16:28:15.845Z,47.00
2022-10-31T16:30:48.470Z,46.50
2022-10-31T16:33:27.313Z,45.70
2022-10-31T16:36:09.602Z,45.20
2022-10-31T16:38:44.389Z,45.70
2022-10-31T16:41:12.537Z,51.00
2022-10-31T16:43:40.567Z,54.00
2022-10-31T16:46:16.722Z,56.20
2022-10-31T16:48:44.893Z,51.80
2022-10-31T16:51:13.153Z,49.60
2022-10-31T16:53:46.400Z,51.30
2022-10-31T16:56:24.128Z,55.60
2022-10-31T16:58:52.449Z,58.50
2022-10-31T17:01:20.717Z,56.50
2022-10-31T17:03:48.986Z,52.30
2022-10-31T17:06:17.433Z,50.50
2022-10-31T17:08:45.888Z,49.70
2022-10-31T17:11:26.665Z,48.50
2022-10-31T17:13:56.029Z,48.00
2022-10-31T17:16:24.446Z,47.40
2022-10-31T17:18:52.577Z,46.60
2022-10-31T17:21:23.909Z,45.90
2022-10-31T17:23:52.522Z,45.20
2022-10-31T17:26:21.060Z,47.10
2022-10-31T17:28:49.014Z,50.80
2022-10-31T17:31:28.477Z,53.40
2022-10-31T17:34:02.121Z,54.50
2022-10-31T17:36:33.244Z,49.90
2022-10-31T17:39:01.598Z,48.30
2022-10-31T17:41:29.759Z,51.50
2022-10-31T17:43:58.663Z,54.90
2022-10-31T17:46:27.284Z,57.10
2022-10-31T17:48:55.167Z,55.10
2022-10-31T17:51:23.261Z,51.10
2022-10-31T17:53:51.581Z,49.60
2022-10-31T17:56:19.727Z,48.60
2022-10-31T17:58:48.044Z,47.70
2022-10-31T18:01:18.322Z,46.80
2022-10-31T18:03:46.508Z,46.20
2022-10-31T18:06:14.785Z,45.40
2022-10-31T18:08:44.718Z,45.00
2022-10-31T18:11:21.482Z,44.40
2022-10-31T18:13:54.813Z,43.80
2022-10-31T18:16:24.440Z,44.70
2022-10-31T18:18:58.341Z,48.20
2022-10-31T18:21:27.071Z,51.80
2022-10-31T18:24:00.023Z,54.00
2022-10-31T18:26:28.971Z,55.80
2022-10-31T18:28:57.276Z,49.70
2022-10-31T18:31:25.761Z,48.20
2022-10-31T18:33:55.191Z,50.70
2022-10-31T18:36:24.734Z,54.50
2022-10-31T18:38:52.995Z,56.60
2022-10-31T18:41:21.527Z,58.00
2022-10-31T18:43:49.822Z,59.00
2022-10-31T18:46:18.480Z,54.90
2022-10-31T18:48:46.702Z,52.10
2022-10-31T18:51:15.410Z,50.60
2022-10-31T18:53:43.244Z,49.40
2022-10-31T18:56:12.212Z,48.10
2022-10-31T18:58:43.182Z,47.30
2022-10-31T19:01:13.051Z,46.50
2022-10-31T19:03:41.746Z,45.40
2022-10-31T19:06:10.917Z,44.90
2022-10-31T19:08:40.244Z,44.40
2022-10-31T19:11:11.366Z,43.80
2022-10-31T19:13:40.780Z,43.00
2022-10-31T19:16:13.941Z,44.00
2022-10-31T19:18:43.785Z,47.80
2022-10-31T19:21:18.806Z,50.30
2022-10-31T19:23:47.042Z,53.00
2022-10-31T19:26:15.554Z,54.70
2022-10-31T19:28:43.866Z,51.10
2022-10-31T19:31:12.109Z,48.90
2022-10-31T19:33:40.383Z,48.90
2022-10-31T19:36:11.836Z,54.00
2022-10-31T19:38:43.257Z,57.10
2022-10-31T19:41:17.082Z,58.00
2022-10-31T19:43:45.269Z,58.60
2022-10-31T19:46:22.151Z,53.10
2022-10-31T19:48:56.177Z,51.20
2022-10-31T19:51:24.579Z,49.80
2022-10-31T19:53:53.017Z,48.50
2022-10-31T19:56:23.589Z,47.60
2022-10-31T19:58:51.830Z,46.40
2022-10-31T20:01:22.637Z,45.90
2022-10-31T20:03:51.387Z,45.30
2022-10-31T20:06:23.599Z,49.20
2022-10-31T20:08:52.321Z,52.10
2022-10-31T20:11:20.264Z,54.30
2022-10-31T20:13:48.547Z,55.90
2022-10-31T20:16:17.575Z,56.70
2022-10-31T20:18:45.890Z,57.50
2022-10-31T20:21:17.279Z,58.00
2022-10-31T20:23:45.975Z,52.90
2022-10-31T20:26:15.578Z,50.30
2022-10-31T20:28:43.932Z,49.10
2022-10-31T20:31:19.799Z,47.80
2022-10-31T20:33:48.989Z,47.10
2022-10-31T20:36:17.618Z,48.20
2022-10-31T20:38:46.052Z,52.40
2022-10-31T20:41:15.417Z,55.40
2022-10-31T20:43:44.134Z,57.20
2022-10-31T20:46:17.987Z,58.30
2022-10-31T20:48:46.526Z,59.80
2022-10-31T20:51:21.232Z,60.40
2022-10-31T20:53:51.030Z,60.40
2022-10-31T20:56:21.437Z,54.40
2022-10-31T20:58:50.277Z,52.30
2022-10-31T21:01:21.464Z,50.60
2022-10-31T21:03:50.607Z,49.40
2022-10-31T21:06:20.083Z,48.20
2022-10-31T21:08:48.371Z,47.30
2022-10-31T21:11:19.208Z,46.90
2022-10-31T21:13:49.004Z,46.00
2022-10-31T21:16:21.792Z,45.20
2022-10-31T21:18:50.922Z,44.80
2022-10-31T21:21:28.893Z,47.60
2022-10-31T21:24:06.176Z,51.00
2022-10-31T21:26:37.916Z,53.30
2022-10-31T21:29:07.601Z,55.00
2022-10-31T21:31:45.218Z,55.90
2022-10-31T21:34:13.443Z,56.60
2022-10-31T21:36:41.718Z,56.90
2022-10-31T21:39:10.695Z,51.90
2022-10-31T21:41:38.928Z,49.90
2022-10-31T21:44:07.237Z,51.00
2022-10-31T21:46:35.570Z,56.10
2022-10-31T21:49:04.637Z,58.00
2022-10-31T21:51:35.506Z,58.90
2022-10-31T21:54:04.664Z,58.80
2022-10-31T21:56:33.504Z,57.60
2022-10-31T21:59:02.652Z,52.30
2022-10-31T22:01:31.330Z,50.70
2022-10-31T22:04:00.246Z,50.30
2022-10-31T22:06:29.431Z,48.50
2022-10-31T22:09:00.270Z,47.40
2022-10-31T22:11:28.803Z,50.30
2022-10-31T22:13:59.322Z,53.90
2022-10-31T22:16:29.717Z,56.20
2022-10-31T22:19:00.474Z,57.80
2022-10-31T22:21:29.480Z,59.10
2022-10-31T22:24:02.042Z,59.90
2022-10-31T22:26:33.771Z,60.40
2022-10-31T22:29:02.911Z,59.40
2022-10-31T22:31:32.384Z,54.30
2022-10-31T22:34:00.946Z,52.20
2022-10-31T22:36:30.979Z,50.70
2022-10-31T22:38:59.902Z,49.70
2022-10-31T22:41:32.601Z,48.80
2022-10-31T22:44:00.931Z,47.50
2022-10-31T22:46:31.626Z,46.60
2022-10-31T22:49:03.342Z,45.60
2022-10-31T22:51:37.223Z,45.00
2022-10-31T22:54:07.663Z,44.50
2022-10-31T22:56:35.894Z,47.30
2022-10-31T22:59:04.340Z,50.60
2022-10-31T23:01:34.430Z,52.80
2022-10-31T23:04:03.089Z,54.80
2022-10-31T23:06:32.766Z,55.80
2022-10-31T23:09:03.187Z,56.40
2022-10-31T23:11:34.241Z,56.30
2022-10-31T23:14:15.795Z,51.20
2022-10-31T23:16:45.701Z,49.50
2022-10-31T23:19:19.470Z,48.20
2022-10-31T23:21:50.154Z,47.30
2022-10-31T23:24:18.506Z,46.20
2022-10-31T23:26:46.689Z,47.50
2022-10-31T23:29:14.982Z,50.60
2022-10-31T23:31:43.206Z,53.40
2022-10-31T23:34:11.264Z,55.30
2022-10-31T23:36:39.523Z,57.00
2022-10-31T23:39:07.668Z,58.20
2022-10-31T23:41:35.929Z,58.90
2022-10-31T23:44:04.110Z,59.10
2022-10-31T23:46:32.384Z,59.30
2022-10-31T23:49:00.575Z,54.00
2022-10-31T23:51:28.807Z,51.60
2022-10-31T23:53:56.843Z,50.60
2022-10-31T23:56:25.467Z,49.80
2022-10-31T23:58:53.598Z,53.70
